createdAt,value
2022-10-21T00:01:41.199Z,10.15
2022-10-21T00:04:08.002Z,9.99
2022-10-21T00:06:34.555Z,9.71
2022-10-21T00:09:01.309Z,9.84
2022-10-21T00:11:27.987Z,9.90
2022-10-21T00:13:54.562Z,10.03
2022-10-21T00:16:21.066Z,10.11
2022-10-21T00:18:48.696Z,10.15
2022-10-21T00:21:18.561Z,10.16
2022-10-21T00:23:46.426Z,10.15
2022-10-21T00:26:14.505Z,10.21
2022-10-21T00:28:41.361Z,10.10
2022-10-21T00:31:09.410Z,10.00
2022-10-21T00:33:36.751Z,10.11
2022-10-21T00:36:03.958Z,10.09
2022-10-21T00:38:31.567Z,10.08
2022-10-21T00:40:58.773Z,10.06
2022-10-21T00:43:25.784Z,10.10
2022-10-21T00:46:11.350Z,9.97
2022-10-21T00:48:44.601Z,9.89
2022-10-21T00:51:14.500Z,9.88
2022-10-21T00:53:45.908Z,9.88
2022-10-21T00:56:21.399Z,9.65
2022-10-21T00:58:48.915Z,9.47
2022-10-21T01:01:19.123Z,9.31
2022-10-21T01:03:48.651Z,9.25
2022-10-21T01:06:16.583Z,9.28
2022-10-21T01:08:43.459Z,9.39
2022-10-21T01:11:17.438Z,9.29
2022-10-21T01:14:02.564Z,9.70
2022-10-21T01:17:00.610Z,9.71
2022-10-21T01:19:54.321Z,9.82
2022-10-21T01:22:42.701Z,9.96
2022-10-21T01:25:15.365Z,10.06
2022-10-21T01:27:58.176Z,10.14
2022-10-21T01:30:38.541Z,10.16
2022-10-21T01:33:13.847Z,9.84
2022-10-21T01:35:46.222Z,9.75
2022-10-21T01:38:24.594Z,9.76
2022-10-21T01:41:28.207Z,9.78
2022-10-21T01:44:35.654Z,9.90
2022-10-21T01:47:16.434Z,10.16
2022-10-21T01:49:52.922Z,10.28
2022-10-21T01:52:20.071Z,10.40
2022-10-21T01:55:03.683Z,10.34
2022-10-21T01:57:35.206Z,10.09
2022-10-21T02:00:02.128Z,10.04
2022-10-21T02:02:35.866Z,10.03
2022-10-21T02:05:09.385Z,10.07
2022-10-21T02:07:36.221Z,10.28
2022-10-21T02:10:04.770Z,10.47
2022-10-21T02:12:33.699Z,10.55
2022-10-21T02:15:02.530Z,10.24
2022-10-21T02:17:29.389Z,10.54
2022-10-21T02:19:59.516Z,10.71
2022-10-21T02:22:26.890Z,10.79
2022-10-21T02:24:57.790Z,10.81
2022-10-21T02:27:24.580Z,10.86
2022-10-21T02:29:54.914Z,10.87
2022-10-21T02:32:43.500Z,10.79
2022-10-21T02:35:16.101Z,10.62
2022-10-21T02:38:10.187Z,10.71
2022-10-21T02:40:38.414Z,10.77
2022-10-21T02:43:10.072Z,10.84
2022-10-21T02:45:36.938Z,10.90
2022-10-21T02:48:03.800Z,10.96
2022-10-21T02:50:30.497Z,11.02
2022-10-21T02:52:57.475Z,10.96
2022-10-21T02:55:24.415Z,11.00
2022-10-21T02:57:50.925Z,10.76
2022-10-21T03:00:17.683Z,10.65
2022-10-21T03:02:44.218Z,10.68
2022-10-21T03:05:11.147Z,10.47
2022-10-21T03:07:37.848Z,10.57
2022-10-21T03:10:05.578Z,10.58
2022-10-21T03:12:32.184Z,10.60
2022-10-21T03:14:58.766Z,10.68
2022-10-21T03:17:25.605Z,10.68
2022-10-21T03:19:52.235Z,10.58
2022-10-21T03:22:18.750Z,10.54
2022-10-21T03:24:45.470Z,10.49
2022-10-21T03:27:11.975Z,10.35
2022-10-21T03:29:38.614Z,10.55
2022-10-21T03:32:05.526Z,10.48
2022-10-21T03:34:32.067Z,10.36
2022-10-21T03:36:58.579Z,10.20
2022-10-21T03:39:25.256Z,10.12
2022-10-21T03:41:51.762Z,10.18
2022-10-21T03:44:18.364Z,10.19
2022-10-21T03:46:44.933Z,10.04
2022-10-21T03:49:18.334Z,10.01
2022-10-21T03:51:48.320Z,9.87
2022-10-21T03:54:15.014Z,9.70
2022-10-21T03:56:41.908Z,9.65
2022-10-21T03:59:08.598Z,9.61
2022-10-21T04:01:35.343Z,9.38
2022-10-21T04:04:01.900Z,9.46
2022-10-21T04:06:28.562Z,9.22
2022-10-21T04:08:55.159Z,9.18
2022-10-21T04:11:22.011Z,9.35
2022-10-21T04:13:48.588Z,9.52
2022-10-21T04:16:18.633Z,9.43
2022-10-21T04:18:45.172Z,9.65
2022-10-21T04:21:12.667Z,9.37
2022-10-21T04:23:39.354Z,9.58
2022-10-21T04:26:06.867Z,9.34
2022-10-21T04:28:34.218Z,9.39
2022-10-21T04:31:00.875Z,9.38
2022-10-21T04:33:27.450Z,9.39
2022-10-21T04:35:55.471Z,9.26
2022-10-21T04:38:22.903Z,9.44
2022-10-21T04:41:07.413Z,9.43
2022-10-21T04:43:34.072Z,9.41
2022-10-21T04:46:00.569Z,9.34
2022-10-21T04:48:27.326Z,9.39
2022-10-21T04:50:54.265Z,9.33
2022-10-21T04:53:22.308Z,9.20
2022-10-21T04:55:53.279Z,8.99
2022-10-21T04:58:22.071Z,8.62
2022-10-21T05:00:52.204Z,8.62
2022-10-21T05:03:19.918Z,8.59
2022-10-21T05:05:49.608Z,8.64
2022-10-21T05:08:16.482Z,8.60
2022-10-21T05:10:46.777Z,8.60
2022-10-21T05:13:13.644Z,8.29
2022-10-21T05:15:40.208Z,8.55
2022-10-21T05:18:07.276Z,8.57
2022-10-21T05:20:33.808Z,8.68
2022-10-21T05:23:00.384Z,8.79
2022-10-21T05:25:29.194Z,8.86
2022-10-21T05:27:58.355Z,8.80
2022-10-21T05:30:24.866Z,8.78
2022-10-21T05:32:51.485Z,8.85
2022-10-21T05:35:18.042Z,8.87
2022-10-21T05:37:44.632Z,8.86
2022-10-21T05:40:11.787Z,8.71
2022-10-21T05:42:38.680Z,8.96
2022-10-21T05:45:06.105Z,8.48
2022-10-21T05:47:32.740Z,8.32
2022-10-21T05:49:59.234Z,8.48
2022-10-21T05:52:25.823Z,8.40
2022-10-21T05:54:52.419Z,8.46
2022-10-21T05:57:19.002Z,8.57
2022-10-21T05:59:45.481Z,8.67
2022-10-21T06:02:12.448Z,8.73
2022-10-21T06:04:39.061Z,8.55
2022-10-21T06:07:06.320Z,8.01
2022-10-21T06:09:33.083Z,8.30
2022-10-21T06:11:59.707Z,8.29
2022-10-21T06:14:27.038Z,8.49
2022-10-21T06:16:53.694Z,8.55
2022-10-21T06:19:20.203Z,8.68
2022-10-21T06:21:48.126Z,8.76
2022-10-21T06:24:15.309Z,8.78
2022-10-21T06:26:41.984Z,8.80
2022-10-21T06:29:08.507Z,8.76
2022-10-21T06:31:35.113Z,8.77
2022-10-21T06:34:01.657Z,8.73
2022-10-21T06:36:28.211Z,8.71
2022-10-21T06:38:54.789Z,8.69
2022-10-21T06:41:21.550Z,8.55
2022-10-21T06:43:48.050Z,8.53
2022-10-21T06:46:15.954Z,8.47
2022-10-21T06:48:42.457Z,8.47
2022-10-21T06:51:21.687Z,8.03
2022-10-21T06:53:52.847Z,8.27
2022-10-21T06:56:20.463Z,8.40
2022-10-21T06:58:48.427Z,8.52
2022-10-21T07:01:34.337Z,8.59
2022-10-21T07:04:09.267Z,8.70
2022-10-21T07:06:36.720Z,8.67
2022-10-21T07:09:05.927Z,8.73
2022-10-21T07:11:32.563Z,8.83
2022-10-21T07:14:01.044Z,8.95
2022-10-21T07:16:33.273Z,9.08
2022-10-21T07:19:00.068Z,9.06
2022-10-21T07:21:29.860Z,9.22
2022-10-21T07:23:59.385Z,9.01
2022-10-21T07:26:28.859Z,9.19
2022-10-21T07:28:56.842Z,9.30
2022-10-21T07:31:23.550Z,9.38
2022-10-21T07:33:50.381Z,9.52
2022-10-21T07:36:26.962Z,9.61
2022-10-21T07:38:55.507Z,9.65
2022-10-21T07:41:25.346Z,9.63
2022-10-21T07:43:53.021Z,9.53
2022-10-21T07:46:21.411Z,9.37
2022-10-21T07:48:48.444Z,9.24
2022-10-21T07:51:18.114Z,8.85
2022-10-21T07:53:45.301Z,9.46
2022-10-21T07:56:17.884Z,9.71
2022-10-21T07:58:45.012Z,9.84
2022-10-21T08:01:11.893Z,9.93
2022-10-21T08:03:39.000Z,10.10
2022-10-21T08:06:08.204Z,10.23
2022-10-21T08:08:36.187Z,10.18
2022-10-21T08:11:04.652Z,10.01
2022-10-21T08:13:31.375Z,9.85
2022-10-21T08:15:58.831Z,9.87
2022-10-21T08:18:25.590Z,10.06
2022-10-21T08:20:52.284Z,10.27
2022-10-21T08:23:21.516Z,10.35
2022-10-21T08:25:53.882Z,10.49
2022-10-21T08:28:21.875Z,10.19
2022-10-21T08:30:48.538Z,10.38
2022-10-21T08:33:15.974Z,10.52
2022-10-21T08:35:44.162Z,10.54
2022-10-21T08:38:12.004Z,10.47
2022-10-21T08:40:45.818Z,10.79
2022-10-21T08:43:28.022Z,10.72
2022-10-21T08:46:03.280Z,10.84
2022-10-21T08:48:36.282Z,10.88
2022-10-21T08:51:05.665Z,10.92
2022-10-21T08:53:47.300Z,10.79
2022-10-21T08:56:19.769Z,10.53
2022-10-21T08:58:50.890Z,10.57
2022-10-21T09:01:26.395Z,10.75
2022-10-21T09:04:02.845Z,10.83
2022-10-21T09:06:35.301Z,10.65
2022-10-21T09:09:10.695Z,10.82
2022-10-21T09:12:11.369Z,10.75
2022-10-21T09:14:56.311Z,10.86
2022-10-21T09:17:51.835Z,11.04
2022-10-21T09:20:37.233Z,10.72
2022-10-21T09:23:37.181Z,10.62
2022-10-21T09:26:27.980Z,10.60
2022-10-21T09:28:57.752Z,10.86
2022-10-21T09:31:24.330Z,11.32
2022-10-21T09:33:58.405Z,11.21
2022-10-21T09:36:37.541Z,11.72
2022-10-21T09:39:16.411Z,11.85
2022-10-21T09:41:46.780Z,11.94
2022-10-21T09:44:19.374Z,12.21
2022-10-21T09:46:47.304Z,12.39
2022-10-21T09:50:01.617Z,12.79
2022-10-21T09:52:17.253Z,12.78
2022-10-21T09:54:45.080Z,12.71
2022-10-21T09:57:34.804Z,12.82
2022-10-21T10:00:05.257Z,12.70
2022-10-21T10:02:44.405Z,12.55
2022-10-21T10:05:44.161Z,12.77
2022-10-21T10:08:31.855Z,13.24
2022-10-21T10:11:04.716Z,13.79
2022-10-21T10:13:31.407Z,13.52
2022-10-21T10:16:28.186Z,13.19
2022-10-21T10:19:16.417Z,12.85
2022-10-21T10:21:43.796Z,12.96
2022-10-21T10:24:20.241Z,12.84
2022-10-21T10:26:47.617Z,12.84
2022-10-21T10:29:20.150Z,12.61
2022-10-21T10:31:50.990Z,12.61
2022-10-21T10:34:29.562Z,12.68
2022-10-21T10:37:18.639Z,12.66
2022-10-21T10:39:52.057Z,12.67
2022-10-21T10:42:21.994Z,12.69
2022-10-21T10:44:54.056Z,12.28
2022-10-21T10:47:27.595Z,12.00
2022-10-21T10:49:54.300Z,12.04
2022-10-21T10:52:22.543Z,12.00
2022-10-21T10:55:08.083Z,12.06
2022-10-21T10:57:45.988Z,11.82
2022-10-21T11:00:21.574Z,12.16
2022-10-21T11:03:00.290Z,12.04
2022-10-21T11:05:27.001Z,11.99
2022-10-21T11:07:56.294Z,12.18
2022-10-21T11:10:22.859Z,12.40
2022-10-21T11:12:49.675Z,12.64
2022-10-21T11:15:16.490Z,12.53
2022-10-21T11:18:00.482Z,12.51
2022-10-21T11:20:35.361Z,12.58
2022-10-21T11:23:42.310Z,12.30
2022-10-21T11:26:49.598Z,12.28
2022-10-21T11:29:35.957Z,12.37
2022-10-21T11:32:21.469Z,12.32
2022-10-21T11:35:15.808Z,12.39
2022-10-21T11:37:57.750Z,12.19
2022-10-21T11:40:33.196Z,12.04
2022-10-21T11:43:16.548Z,12.13
2022-10-21T11:45:54.393Z,12.21
2022-10-21T11:48:38.423Z,12.16
2022-10-21T11:51:24.512Z,12.13
2022-10-21T11:53:56.861Z,12.00
2022-10-21T11:56:23.478Z,11.84
2022-10-21T11:59:20.403Z,11.90
2022-10-21T12:02:11.140Z,12.16
2022-10-21T12:04:45.133Z,12.24
2022-10-21T12:07:30.106Z,12.25
2022-10-21T12:10:15.331Z,12.19
2022-10-21T12:12:46.254Z,12.08
2022-10-21T12:15:45.261Z,12.04
2022-10-21T12:18:16.090Z,12.25
2022-10-21T12:20:45.631Z,12.31
2022-10-21T12:23:17.817Z,12.25
2022-10-21T12:25:49.475Z,12.10
2022-10-21T12:28:27.772Z,12.12
2022-10-21T12:31:22.525Z,12.34
2022-10-21T12:33:49.941Z,11.95
2022-10-21T12:36:25.302Z,12.12
2022-10-21T12:38:54.763Z,12.32
2022-10-21T12:41:21.211Z,12.09
2022-10-21T12:44:01.999Z,12.09
2022-10-21T12:46:39.157Z,11.95
2022-10-21T12:49:18.819Z,12.14
2022-10-21T12:52:02.996Z,12.19
2022-10-21T12:54:37.381Z,12.23
2022-10-21T12:57:10.798Z,12.34
2022-10-21T12:59:42.699Z,12.40
2022-10-21T13:02:18.075Z,12.42
2022-10-21T13:04:47.256Z,12.45
2022-10-21T13:07:16.526Z,12.36
2022-10-21T13:10:03.125Z,12.15
2022-10-21T13:12:32.432Z,12.50
2022-10-21T13:15:22.302Z,12.45
2022-10-21T13:17:55.851Z,12.52
2022-10-21T13:20:22.528Z,12.81
2022-10-21T13:23:28.418Z,12.97
2022-10-21T13:26:18.557Z,13.17
2022-10-21T13:29:06.813Z,13.24
2022-10-21T13:31:34.106Z,13.42
2022-10-21T13:34:04.190Z,13.31
2022-10-21T13:36:42.872Z,13.37
2022-10-21T13:39:43.586Z,13.47
2022-10-21T13:42:17.340Z,13.46
2022-10-21T13:45:04.749Z,13.15
2022-10-21T13:47:35.771Z,12.70
2022-10-21T13:50:20.178Z,12.57
2022-10-21T13:53:00.516Z,12.39
2022-10-21T13:55:29.379Z,12.31
2022-10-21T13:58:00.608Z,12.12
2022-10-21T14:00:32.109Z,12.37
2022-10-21T14:03:06.014Z,12.52
2022-10-21T14:05:48.762Z,12.38
2022-10-21T14:08:40.791Z,12.41
2022-10-21T14:11:16.805Z,12.55
2022-10-21T14:13:44.013Z,12.65
2022-10-21T14:16:19.123Z,12.50
2022-10-21T14:18:47.820Z,12.40
2022-10-21T14:21:20.768Z,12.53
2022-10-21T14:23:47.833Z,12.56
2022-10-21T14:26:14.595Z,12.70
2022-10-21T14:28:43.326Z,12.59
2022-10-21T14:31:12.185Z,12.62
2022-10-21T14:33:44.132Z,12.65
2022-10-21T14:36:14.505Z,12.70
2022-10-21T14:38:51.115Z,12.77
2022-10-21T14:41:30.006Z,12.75
2022-10-21T14:44:07.102Z,12.78
2022-10-21T14:46:44.783Z,12.73
2022-10-21T14:49:21.917Z,12.68
2022-10-21T14:51:49.435Z,12.82
2022-10-21T14:54:33.375Z,12.72
2022-10-21T14:57:00.649Z,12.58
2022-10-21T14:59:39.213Z,12.66
2022-10-21T15:02:15.902Z,12.67
2022-10-21T15:04:50.128Z,12.58
2022-10-21T15:07:36.471Z,12.48
2022-10-21T15:10:03.005Z,12.31
2022-10-21T15:12:38.930Z,12.40
2022-10-21T15:15:38.003Z,12.44
2022-10-21T15:18:11.149Z,12.41
2022-10-21T15:20:38.114Z,12.54
2022-10-21T15:23:04.830Z,12.33
2022-10-21T15:25:31.526Z,12.09
2022-10-21T15:27:58.129Z,12.10
2022-10-21T15:30:25.082Z,12.21
2022-10-21T15:32:51.582Z,12.38
2022-10-21T15:35:21.335Z,12.33
2022-10-21T15:37:49.361Z,12.39
2022-10-21T15:40:17.311Z,12.41
2022-10-21T15:42:44.255Z,12.46
2022-10-21T15:45:20.055Z,12.40
2022-10-21T15:47:54.478Z,12.31
2022-10-21T15:50:24.266Z,12.56
2022-10-21T15:52:51.361Z,12.77
2022-10-21T15:55:18.063Z,12.78
2022-10-21T15:57:44.623Z,12.74
2022-10-21T16:00:17.208Z,12.70
2022-10-21T16:02:44.306Z,12.67
2022-10-21T16:05:10.940Z,12.63
2022-10-21T16:07:37.701Z,12.72
2022-10-21T16:10:16.494Z,12.59
2022-10-21T16:12:44.161Z,12.65
2022-10-21T16:15:11.023Z,12.52
2022-10-21T16:17:37.660Z,12.33
2022-10-21T16:20:04.674Z,12.23
2022-10-21T16:22:31.303Z,12.08
2022-10-21T16:24:57.847Z,12.22
2022-10-21T16:27:43.363Z,12.27
2022-10-21T16:30:11.722Z,12.46
2022-10-21T16:32:38.457Z,12.51
2022-10-21T16:35:05.729Z,12.49
2022-10-21T16:37:32.434Z,12.54
2022-10-21T16:39:59.062Z,12.46
2022-10-21T16:42:25.638Z,12.54
2022-10-21T16:44:52.322Z,12.52
2022-10-21T16:47:21.327Z,12.53
2022-10-21T16:49:48.991Z,12.43
2022-10-21T16:52:16.152Z,12.45
2022-10-21T16:54:46.482Z,12.31
2022-10-21T16:57:15.094Z,12.16
2022-10-21T16:59:41.635Z,12.19
2022-10-21T17:02:16.180Z,12.33
2022-10-21T17:04:43.025Z,12.46
2022-10-21T17:07:10.638Z,12.51
2022-10-21T17:09:37.467Z,12.52
2022-10-21T17:12:04.224Z,12.45
2022-10-21T17:14:31.265Z,12.53
2022-10-21T17:16:57.820Z,12.56
2022-10-21T17:19:24.496Z,12.35
2022-10-21T17:21:51.044Z,12.39
2022-10-21T17:24:18.279Z,12.15
2022-10-21T17:26:45.489Z,12.29
2022-10-21T17:29:12.094Z,12.47
2022-10-21T17:31:41.115Z,12.56
2022-10-21T17:34:16.434Z,12.55
2022-10-21T17:36:42.991Z,12.31
2022-10-21T17:39:09.501Z,12.36
2022-10-21T17:41:36.414Z,12.43
2022-10-21T17:44:02.959Z,12.49
2022-10-21T17:46:29.625Z,12.43
2022-10-21T17:48:57.809Z,12.32
2022-10-21T17:51:25.209Z,12.50
2022-10-21T17:53:53.177Z,12.50
2022-10-21T17:56:20.419Z,12.48
2022-10-21T17:58:52.263Z,12.57
2022-10-21T18:01:19.748Z,12.50
2022-10-21T18:03:46.396Z,12.55
2022-10-21T18:06:14.371Z,12.58
2022-10-21T18:08:41.501Z,12.59
2022-10-21T18:11:13.946Z,12.55
2022-10-21T18:13:40.948Z,12.40
2022-10-21T18:16:09.130Z,12.48
2022-10-21T18:18:36.893Z,12.10
2022-10-21T18:21:05.614Z,12.46
2022-10-21T18:23:32.638Z,12.50
2022-10-21T18:26:07.500Z,12.54
2022-10-21T18:28:34.891Z,12.55
2022-10-21T18:31:02.882Z,12.57
2022-10-21T18:33:29.898Z,12.47
2022-10-21T18:35:56.742Z,12.70
2022-10-21T18:38:23.327Z,12.64
2022-10-21T18:41:02.020Z,12.67
2022-10-21T18:43:36.186Z,12.68
2022-10-21T18:46:04.000Z,12.70
2022-10-21T18:48:30.763Z,12.62
2022-10-21T18:50:57.546Z,12.60
2022-10-21T18:53:24.463Z,12.65
2022-10-21T18:55:51.068Z,12.60
2022-10-21T18:58:17.740Z,12.55
2022-10-21T19:00:44.354Z,12.39
2022-10-21T19:03:10.950Z,12.33
2022-10-21T19:05:37.471Z,12.31
2022-10-21T19:08:04.166Z,12.38
2022-10-21T19:10:30.695Z,12.37
2022-10-21T19:12:57.311Z,12.38
2022-10-21T19:15:23.925Z,12.40
2022-10-21T19:17:50.472Z,12.39
2022-10-21T19:20:17.059Z,12.42
2022-10-21T19:22:43.643Z,12.42
2022-10-21T19:25:10.175Z,12.44
2022-10-21T19:27:36.982Z,12.27
2022-10-21T19:30:03.983Z,12.25
2022-10-21T19:32:30.600Z,12.35
2022-10-21T19:34:57.086Z,12.33
2022-10-21T19:37:23.916Z,12.41
2022-10-21T19:39:50.420Z,12.40
2022-10-21T19:42:16.984Z,12.40
2022-10-21T19:44:43.583Z,12.36
2022-10-21T19:47:10.271Z,12.27
2022-10-21T19:49:36.917Z,12.46
2022-10-21T19:52:03.621Z,12.49
2022-10-21T19:54:30.136Z,12.48
2022-10-21T19:56:57.032Z,12.48
2022-10-21T19:59:23.699Z,12.53
2022-10-21T20:01:50.324Z,12.47
2022-10-21T20:04:16.869Z,12.53
2022-10-21T20:06:43.532Z,12.50
2022-10-21T20:09:13.924Z,12.53
2022-10-21T20:11:42.686Z,12.56
2022-10-21T20:14:17.374Z,12.57
2022-10-21T20:16:44.806Z,12.67
2022-10-21T20:19:15.232Z,12.79
2022-10-21T20:21:42.819Z,12.66
2022-10-21T20:24:12.945Z,12.72
2022-10-21T20:29:12.944Z,12.85
2022-10-21T20:31:39.482Z,12.67
2022-10-21T20:34:06.330Z,12.74
2022-10-21T20:36:33.506Z,12.80
2022-10-21T20:39:02.525Z,12.81
2022-10-21T20:41:32.942Z,12.80
2022-10-21T20:44:01.287Z,12.82
2022-10-21T20:46:28.006Z,12.81
2022-10-21T20:48:55.035Z,12.64
2022-10-21T20:51:26.895Z,12.52
2022-10-21T20:53:59.089Z,12.65
2022-10-21T20:56:31.532Z,12.66
2022-10-21T20:59:00.393Z,12.64
2022-10-21T21:01:32.608Z,12.68
2022-10-21T21:04:02.574Z,12.61
2022-10-21T21:06:29.282Z,12.79
2022-10-21T21:09:28.917Z,12.79
2022-10-21T21:11:44.932Z,12.73
2022-10-21T21:14:12.482Z,12.77
2022-10-21T21:16:39.604Z,12.76
2022-10-21T21:19:07.732Z,12.75
2022-10-21T21:21:37.008Z,12.83
2022-10-21T21:24:04.157Z,12.83
2022-10-21T21:26:33.339Z,12.76
2022-10-21T21:29:00.827Z,12.41
2022-10-21T21:31:29.906Z,12.59
2022-10-21T21:33:57.020Z,12.47
2022-10-21T21:36:24.516Z,12.43
2022-10-21T21:38:51.269Z,12.50
2022-10-21T21:41:18.260Z,12.20
2022-10-21T21:43:46.189Z,12.42
2022-10-21T21:46:12.975Z,12.53
2022-10-21T21:48:39.569Z,12.60
2022-10-21T21:51:09.221Z,12.73
2022-10-21T21:53:36.849Z,12.79
2022-10-21T21:56:05.723Z,12.83
2022-10-21T21:58:32.304Z,12.84
2022-10-21T22:01:18.818Z,12.83
2022-10-21T22:03:46.409Z,12.81
2022-10-21T22:06:14.122Z,12.81
2022-10-21T22:08:42.262Z,12.81
2022-10-21T22:11:11.314Z,12.61
2022-10-21T22:13:39.205Z,12.64
2022-10-21T22:16:07.539Z,12.37
2022-10-21T22:18:34.322Z,12.16
2022-10-21T22:21:02.383Z,12.49
2022-10-21T22:23:29.053Z,12.56
2022-10-21T22:25:57.646Z,12.61
2022-10-21T22:28:25.124Z,12.37
2022-10-21T22:31:03.630Z,12.46
2022-10-21T22:33:30.444Z,12.59
2022-10-21T22:35:57.370Z,12.66
2022-10-21T22:38:24.219Z,12.37
2022-10-21T22:40:54.156Z,12.14
2022-10-21T22:43:20.788Z,12.14
2022-10-21T22:45:48.166Z,12.10
2022-10-21T22:48:16.032Z,12.24
2022-10-21T22:50:42.840Z,12.51
2022-10-21T22:53:09.787Z,12.62
2022-10-21T22:55:36.522Z,12.67
2022-10-21T22:58:03.584Z,12.63
2022-10-21T23:00:30.290Z,12.59
2022-10-21T23:02:57.195Z,12.69
2022-10-21T23:05:23.856Z,12.72
2022-10-21T23:07:50.591Z,12.79
2022-10-21T23:10:17.235Z,12.83
2022-10-21T23:12:43.885Z,12.86
2022-10-21T23:15:11.343Z,12.81
2022-10-21T23:17:37.880Z,12.88
2022-10-21T23:20:04.791Z,12.77
2022-10-21T23:22:31.481Z,12.91
2022-10-21T23:24:58.042Z,12.91
2022-10-21T23:27:24.637Z,12.93
2022-10-21T23:29:51.367Z,12.91
2022-10-21T23:32:18.308Z,12.93
2022-10-21T23:34:44.885Z,12.95
2022-10-21T23:37:11.601Z,12.95
2022-10-21T23:39:38.240Z,12.96
2022-10-21T23:42:05.398Z,12.94
2022-10-21T23:44:31.984Z,12.95
2022-10-21T23:46:58.631Z,12.95
2022-10-21T23:49:25.479Z,12.92
2022-10-21T23:51:52.903Z,12.98
2022-10-21T23:54:19.526Z,12.99
2022-10-21T23:56:46.205Z,12.98
2022-10-21T23:59:12.984Z,12.96
